sensor_id;sensor_type;location;lat;lon;timestamp;P1;durP1;ratioP1;P2;durP2;ratioP2
1509;SDS011;746;48.688;9.428;2023-02-28T00:01:01;5.27;;;4.20;;
1509;SDS011;746;48.688;9.428;2023-02-28T00:03:23;3.90;;;3.60;;
1509;SDS011;746;48.688;9.428;2023-02-28T00:05:44;4.10;;;3.80;;
1509;SDS011;746;48.688;9.428;2023-02-28T00:08:07;4.17;;;3.87;;
1509;SDS011;746;48.688;9.428;2023-02-28T00:10:29;3.90;;;3.60;;
1509;SDS011;746;48.688;9.428;2023-02-28T00:12:51;4.17;;;3.87;;
1509;SDS011;746;48.688;9.428;2023-02-28T00:15:12;3.83;;;3.53;;
1509;SDS011;746;48.688;9.428;2023-02-28T00:17:33;5.13;;;4.07;;
1509;SDS011;746;48.688;9.428;2023-02-28T00:19:55;4.57;;;4.17;;
1509;SDS011;746;48.688;9.428;2023-02-28T00:22:16;4.50;;;4.10;;
1509;SDS011;746;48.688;9.428;2023-02-28T00:24:39;4.13;;;3.73;;
1509;SDS011;746;48.688;9.428;2023-02-28T00:27:01;3.70;;;3.40;;
1509;SDS011;746;48.688;9.428;2023-02-28T00:29:22;4.00;;;3.70;;
1509;SDS011;746;48.688;9.428;2023-02-28T00:31:43;4.40;;;4.00;;
1509;SDS011;746;48.688;9.428;2023-02-28T00:34:05;5.90;;;3.93;;
1509;SDS011;746;48.688;9.428;2023-02-28T00:36:26;4.10;;;3.80;;
1509;SDS011;746;48.688;9.428;2023-02-28T00:38:47;4.37;;;3.97;;
1509;SDS011;746;48.688;9.428;2023-02-28T00:41:10;4.80;;;4.33;;
1509;SDS011;746;48.688;9.428;2023-02-28T00:43:32;4.17;;;3.87;;
1509;SDS011;746;48.688;9.428;2023-02-28T00:45:53;5.70;;;4.03;;
1509;SDS011;746;48.688;9.428;2023-02-28T00:48:15;5.43;;;3.93;;
1509;SDS011;746;48.688;9.428;2023-02-28T00:50:36;4.30;;;3.77;;
1509;SDS011;746;48.688;9.428;2023-02-28T00:52:57;4.13;;;3.83;;
1509;SDS011;746;48.688;9.428;2023-02-28T00:55:19;4.33;;;3.80;;
1509;SDS011;746;48.688;9.428;2023-02-28T00:57:41;4.57;;;4.00;;
1509;SDS011;746;48.688;9.428;2023-02-28T01:00:02;4.40;;;3.97;;
1509;SDS011;746;48.688;9.428;2023-02-28T01:02:24;4.67;;;3.90;;
1509;SDS011;746;48.688;9.428;2023-02-28T01:04:46;4.20;;;3.90;;
1509;SDS011;746;48.688;9.428;2023-02-28T01:07:07;4.30;;;3.90;;
1509;SDS011;746;48.688;9.428;2023-02-28T01:09:28;4.67;;;4.10;;
1509;SDS011;746;48.688;9.428;2023-02-28T01:11:49;4.40;;;4.10;;
1509;SDS011;746;48.688;9.428;2023-02-28T01:14:13;4.40;;;4.00;;
1509;SDS011;746;48.688;9.428;2023-02-28T01:16:35;4.27;;;3.93;;
1509;SDS011;746;48.688;9.428;2023-02-28T01:18:56;4.70;;;4.10;;
1509;SDS011;746;48.688;9.428;2023-02-28T01:21:18;4.97;;;4.00;;
1509;SDS011;746;48.688;9.428;2023-02-28T01:23:40;4.83;;;4.20;;
1509;SDS011;746;48.688;9.428;2023-02-28T01:26:03;4.67;;;4.27;;
1509;SDS011;746;48.688;9.428;2023-02-28T01:28:24;4.60;;;4.17;;
1509;SDS011;746;48.688;9.428;2023-02-28T01:30:48;4.60;;;4.20;;
1509;SDS011;746;48.688;9.428;2023-02-28T01:33:10;5.17;;;4.00;;
1509;SDS011;746;48.688;9.428;2023-02-28T01:35:32;5.00;;;4.40;;
1509;SDS011;746;48.688;9.428;2023-02-28T01:37:53;5.33;;;4.27;;
1509;SDS011;746;48.688;9.428;2023-02-28T01:40:14;5.47;;;4.63;;
1509;SDS011;746;48.688;9.428;2023-02-28T01:42:35;5.10;;;4.60;;
1509;SDS011;746;48.688;9.428;2023-02-28T01:44:59;5.00;;;4.50;;
1509;SDS011;746;48.688;9.428;2023-02-28T01:47:22;4.60;;;4.07;;
1509;SDS011;746;48.688;9.428;2023-02-28T01:49:44;5.03;;;4.43;;
1509;SDS011;746;48.688;9.428;2023-02-28T01:52:05;4.83;;;4.37;;
1509;SDS011;746;48.688;9.428;2023-02-28T01:54:28;5.07;;;4.63;;
1509;SDS011;746;48.688;9.428;2023-02-28T01:56:51;6.00;;;4.70;;
1509;SDS011;746;48.688;9.428;2023-02-28T01:59:17;5.30;;;4.80;;
1509;SDS011;746;48.688;9.428;2023-02-28T02:01:41;5.00;;;4.60;;
1509;SDS011;746;48.688;9.428;2023-02-28T02:04:04;5.27;;;4.77;;
1509;SDS011;746;48.688;9.428;2023-02-28T02:06:25;17.60;;;11.60;;
1509;SDS011;746;48.688;9.428;2023-02-28T02:08:48;6.03;;;5.43;;
1509;SDS011;746;48.688;9.428;2023-02-28T02:11:16;4.90;;;4.50;;
1509;SDS011;746;48.688;9.428;2023-02-28T02:13:43;5.00;;;4.60;;
1509;SDS011;746;48.688;9.428;2023-02-28T02:16:10;6.60;;;5.03;;
1509;SDS011;746;48.688;9.428;2023-02-28T02:18:37;7.03;;;5.80;;
1509;SDS011;746;48.688;9.428;2023-02-28T02:21:09;4.57;;;4.17;;
1509;SDS011;746;48.688;9.428;2023-02-28T02:26:38;4.93;;;4.43;;
1509;SDS011;746;48.688;9.428;2023-02-28T02:29:14;5.77;;;5.13;;
1509;SDS011;746;48.688;9.428;2023-02-28T02:37:24;5.67;;;5.07;;
1509;SDS011;746;48.688;9.428;2023-02-28T02:39:50;6.57;;;5.00;;
1509;SDS011;746;48.688;9.428;2023-02-28T02:42:13;5.93;;;5.33;;
1509;SDS011;746;48.688;9.428;2023-02-28T02:44:38;5.40;;;4.90;;
1509;SDS011;746;48.688;9.428;2023-02-28T02:47:05;4.83;;;4.40;;
1509;SDS011;746;48.688;9.428;2023-02-28T02:49:30;5.30;;;4.80;;
1509;SDS011;746;48.688;9.428;2023-02-28T02:51:52;6.00;;;5.03;;
1509;SDS011;746;48.688;9.428;2023-02-28T02:54:17;5.47;;;4.93;;
1509;SDS011;746;48.688;9.428;2023-02-28T02:56:39;5.57;;;5.07;;
1509;SDS011;746;48.688;9.428;2023-02-28T02:59:02;5.13;;;4.73;;
1509;SDS011;746;48.688;9.428;2023-02-28T03:01:24;5.03;;;4.63;;
1509;SDS011;746;48.688;9.428;2023-02-28T03:03:49;6.37;;;5.00;;
1509;SDS011;746;48.688;9.428;2023-02-28T03:06:10;6.77;;;4.93;;
1509;SDS011;746;48.688;9.428;2023-02-28T03:08:33;5.77;;;5.20;;
1509;SDS011;746;48.688;9.428;2023-02-28T03:10:57;5.13;;;4.67;;
1509;SDS011;746;48.688;9.428;2023-02-28T03:13:24;5.40;;;4.90;;
1509;SDS011;746;48.688;9.428;2023-02-28T03:15:57;6.07;;;5.40;;
1509;SDS011;746;48.688;9.428;2023-02-28T03:18:21;5.70;;;5.20;;
1509;SDS011;746;48.688;9.428;2023-02-28T03:20:46;5.70;;;5.20;;
1509;SDS011;746;48.688;9.428;2023-02-28T03:23:13;5.70;;;5.17;;
1509;SDS011;746;48.688;9.428;2023-02-28T03:25:38;5.70;;;5.20;;
1509;SDS011;746;48.688;9.428;2023-02-28T03:28:07;6.27;;;5.27;;
1509;SDS011;746;48.688;9.428;2023-02-28T03:30:32;5.73;;;5.23;;
1509;SDS011;746;48.688;9.428;2023-02-28T03:32:55;5.80;;;5.20;;
1509;SDS011;746;48.688;9.428;2023-02-28T03:35:18;6.10;;;5.50;;
1509;SDS011;746;48.688;9.428;2023-02-28T03:37:42;5.70;;;5.07;;
1509;SDS011;746;48.688;9.428;2023-02-28T03:40:05;5.80;;;5.30;;
1509;SDS011;746;48.688;9.428;2023-02-28T03:42:28;5.33;;;4.83;;
1509;SDS011;746;48.688;9.428;2023-02-28T03:44:52;5.77;;;5.27;;
1509;SDS011;746;48.688;9.428;2023-02-28T03:47:14;6.20;;;5.70;;
1509;SDS011;746;48.688;9.428;2023-02-28T03:49:39;6.20;;;5.60;;
1509;SDS011;746;48.688;9.428;2023-02-28T03:52:04;6.00;;;5.40;;
1509;SDS011;746;48.688;9.428;2023-02-28T03:54:27;6.30;;;5.70;;
1509;SDS011;746;48.688;9.428;2023-02-28T03:56:51;6.17;;;5.57;;
1509;SDS011;746;48.688;9.428;2023-02-28T03:59:15;8.30;;;5.87;;
1509;SDS011;746;48.688;9.428;2023-02-28T04:01:40;6.10;;;5.50;;
1509;SDS011;746;48.688;9.428;2023-02-28T04:04:03;6.30;;;5.70;;
1509;SDS011;746;48.688;9.428;2023-02-28T04:06:25;6.33;;;5.73;;
1509;SDS011;746;48.688;9.428;2023-02-28T04:08:47;6.33;;;5.73;;
1509;SDS011;746;48.688;9.428;2023-02-28T04:11:22;6.13;;;5.53;;
1509;SDS011;746;48.688;9.428;2023-02-28T04:13:44;7.27;;;6.00;;
1509;SDS011;746;48.688;9.428;2023-02-28T04:16:06;6.17;;;5.57;;
1509;SDS011;746;48.688;9.428;2023-02-28T04:18:41;6.53;;;5.93;;
1509;SDS011;746;48.688;9.428;2023-02-28T04:21:04;6.77;;;6.10;;
1509;SDS011;746;48.688;9.428;2023-02-28T04:23:25;6.10;;;5.60;;
1509;SDS011;746;48.688;9.428;2023-02-28T04:25:46;8.87;;;6.20;;
1509;SDS011;746;48.688;9.428;2023-02-28T04:28:08;10.13;;;5.80;;
1509;SDS011;746;48.688;9.428;2023-02-28T04:30:29;6.63;;;5.97;;
1509;SDS011;746;48.688;9.428;2023-02-28T04:32:52;6.53;;;5.93;;
1509;SDS011;746;48.688;9.428;2023-02-28T04:35:15;6.80;;;6.07;;
1509;SDS011;746;48.688;9.428;2023-02-28T04:37:36;6.63;;;6.03;;
1509;SDS011;746;48.688;9.428;2023-02-28T04:39:57;8.50;;;6.57;;
1509;SDS011;746;48.688;9.428;2023-02-28T04:42:19;6.70;;;5.90;;
1509;SDS011;746;48.688;9.428;2023-02-28T04:44:40;8.97;;;7.03;;
1509;SDS011;746;48.688;9.428;2023-02-28T04:47:02;8.70;;;7.00;;
1509;SDS011;746;48.688;9.428;2023-02-28T04:49:23;14.20;;;10.00;;
1509;SDS011;746;48.688;9.428;2023-02-28T04:51:46;7.27;;;6.57;;
1509;SDS011;746;48.688;9.428;2023-02-28T04:54:07;8.50;;;6.73;;
1509;SDS011;746;48.688;9.428;2023-02-28T04:56:29;7.53;;;6.43;;
1509;SDS011;746;48.688;9.428;2023-02-28T04:58:50;7.40;;;6.70;;
1509;SDS011;746;48.688;9.428;2023-02-28T05:01:17;9.33;;;8.30;;
1509;SDS011;746;48.688;9.428;2023-02-28T05:03:38;7.33;;;6.60;;
1509;SDS011;746;48.688;9.428;2023-02-28T05:06:00;8.43;;;7.37;;
1509;SDS011;746;48.688;9.428;2023-02-28T05:08:23;7.40;;;6.70;;
1509;SDS011;746;48.688;9.428;2023-02-28T05:10:45;7.73;;;6.87;;
1509;SDS011;746;48.688;9.428;2023-02-28T05:13:06;7.27;;;6.57;;
1509;SDS011;746;48.688;9.428;2023-02-28T05:15:27;7.77;;;6.97;;
1509;SDS011;746;48.688;9.428;2023-02-28T05:17:48;8.17;;;7.33;;
1509;SDS011;746;48.688;9.428;2023-02-28T05:20:10;7.80;;;7.00;;
1509;SDS011;746;48.688;9.428;2023-02-28T05:22:34;7.90;;;7.10;;
1509;SDS011;746;48.688;9.428;2023-02-28T05:24:57;7.83;;;7.03;;
1509;SDS011;746;48.688;9.428;2023-02-28T05:27:19;7.93;;;7.07;;
1509;SDS011;746;48.688;9.428;2023-02-28T05:29:40;7.23;;;6.63;;
1509;SDS011;746;48.688;9.428;2023-02-28T05:32:03;8.07;;;6.70;;
1509;SDS011;746;48.688;9.428;2023-02-28T05:34:25;8.83;;;7.47;;
1509;SDS011;746;48.688;9.428;2023-02-28T05:36:46;7.90;;;7.10;;
1509;SDS011;746;48.688;9.428;2023-02-28T05:39:07;8.57;;;7.70;;
1509;SDS011;746;48.688;9.428;2023-02-28T05:41:33;8.07;;;7.27;;
1509;SDS011;746;48.688;9.428;2023-02-28T05:43:54;8.73;;;7.30;;
1509;SDS011;746;48.688;9.428;2023-02-28T05:46:16;8.27;;;7.47;;
1509;SDS011;746;48.688;9.428;2023-02-28T05:48:37;8.13;;;7.33;;
1509;SDS011;746;48.688;9.428;2023-02-28T05:50:59;8.80;;;7.30;;
1509;SDS011;746;48.688;9.428;2023-02-28T05:53:20;7.60;;;6.90;;
1509;SDS011;746;48.688;9.428;2023-02-28T05:55:41;9.67;;;7.03;;
1509;SDS011;746;48.688;9.428;2023-02-28T05:58:04;8.23;;;7.20;;
1509;SDS011;746;48.688;9.428;2023-02-28T06:00:25;8.80;;;7.60;;
1509;SDS011;746;48.688;9.428;2023-02-28T06:02:47;9.50;;;8.27;;
1509;SDS011;746;48.688;9.428;2023-02-28T06:05:10;8.10;;;7.30;;
1509;SDS011;746;48.688;9.428;2023-02-28T06:07:33;9.17;;;7.73;;
1509;SDS011;746;48.688;9.428;2023-02-28T06:09:54;7.90;;;7.10;;
1509;SDS011;746;48.688;9.428;2023-02-28T06:12:15;8.60;;;7.63;;
1509;SDS011;746;48.688;9.428;2023-02-28T06:14:38;9.00;;;7.43;;
1509;SDS011;746;48.688;9.428;2023-02-28T06:16:59;10.00;;;8.03;;
1509;SDS011;746;48.688;9.428;2023-02-28T06:19:21;8.93;;;7.77;;
1509;SDS011;746;48.688;9.428;2023-02-28T06:21:45;11.63;;;7.97;;
1509;SDS011;746;48.688;9.428;2023-02-28T06:24:10;8.83;;;7.93;;
1509;SDS011;746;48.688;9.428;2023-02-28T06:26:32;9.27;;;8.00;;
1509;SDS011;746;48.688;9.428;2023-02-28T06:28:53;9.50;;;7.83;;
1509;SDS011;746;48.688;9.428;2023-02-28T06:31:16;8.73;;;7.70;;
1509;SDS011;746;48.688;9.428;2023-02-28T06:33:37;7.90;;;7.20;;
1509;SDS011;746;48.688;9.428;2023-02-28T06:35:58;9.43;;;8.40;;
1509;SDS011;746;48.688;9.428;2023-02-28T06:38:20;9.47;;;8.17;;
1509;SDS011;746;48.688;9.428;2023-02-28T06:40:41;9.53;;;8.53;;
1509;SDS011;746;48.688;9.428;2023-02-28T06:43:03;8.33;;;7.53;;
1509;SDS011;746;48.688;9.428;2023-02-28T06:45:25;8.93;;;8.03;;
1509;SDS011;746;48.688;9.428;2023-02-28T06:47:47;9.20;;;8.23;;
1509;SDS011;746;48.688;9.428;2023-02-28T06:50:11;10.37;;;8.53;;
1509;SDS011;746;48.688;9.428;2023-02-28T06:52:33;10.13;;;8.13;;
1509;SDS011;746;48.688;9.428;2023-02-28T06:54:56;10.40;;;8.47;;
1509;SDS011;746;48.688;9.428;2023-02-28T06:57:20;9.43;;;8.10;;
1509;SDS011;746;48.688;9.428;2023-02-28T06:59:42;11.63;;;8.83;;
1509;SDS011;746;48.688;9.428;2023-02-28T07:02:03;8.93;;;8.03;;
1509;SDS011;746;48.688;9.428;2023-02-28T07:04:27;9.50;;;8.60;;
1509;SDS011;746;48.688;9.428;2023-02-28T07:06:49;11.97;;;8.60;;
1509;SDS011;746;48.688;9.428;2023-02-28T07:09:10;10.33;;;8.77;;
1509;SDS011;746;48.688;9.428;2023-02-28T07:11:31;10.17;;;8.67;;
1509;SDS011;746;48.688;9.428;2023-02-28T07:13:53;9.43;;;8.37;;
1509;SDS011;746;48.688;9.428;2023-02-28T07:16:14;10.63;;;8.67;;
1509;SDS011;746;48.688;9.428;2023-02-28T07:18:36;10.27;;;9.00;;
1509;SDS011;746;48.688;9.428;2023-02-28T07:21:01;10.83;;;9.53;;
1509;SDS011;746;48.688;9.428;2023-02-28T07:23:22;9.77;;;8.83;;
1509;SDS011;746;48.688;9.428;2023-02-28T07:25:43;11.37;;;9.40;;
1509;SDS011;746;48.688;9.428;2023-02-28T07:28:05;10.20;;;9.20;;
1509;SDS011;746;48.688;9.428;2023-02-28T07:30:26;9.97;;;8.97;;
1509;SDS011;746;48.688;9.428;2023-02-28T07:32:47;10.03;;;8.50;;
1509;SDS011;746;48.688;9.428;2023-02-28T07:35:08;10.80;;;8.83;;
1509;SDS011;746;48.688;9.428;2023-02-28T07:37:31;10.40;;;9.10;;
1509;SDS011;746;48.688;9.428;2023-02-28T07:39:56;10.20;;;8.93;;
1509;SDS011;746;48.688;9.428;2023-02-28T07:42:17;12.97;;;10.13;;
1509;SDS011;746;48.688;9.428;2023-02-28T07:44:39;10.50;;;9.03;;
1509;SDS011;746;48.688;9.428;2023-02-28T07:47:01;9.73;;;8.73;;
1509;SDS011;746;48.688;9.428;2023-02-28T07:49:22;10.87;;;9.37;;
1509;SDS011;746;48.688;9.428;2023-02-28T07:51:43;10.90;;;9.40;;
1509;SDS011;746;48.688;9.428;2023-02-28T07:54:06;10.80;;;9.27;;
1509;SDS011;746;48.688;9.428;2023-02-28T07:56:27;11.67;;;9.97;;
1509;SDS011;746;48.688;9.428;2023-02-28T07:58:49;9.80;;;8.83;;
1509;SDS011;746;48.688;9.428;2023-02-28T08:01:10;12.27;;;10.20;;
1509;SDS011;746;48.688;9.428;2023-02-28T08:03:32;12.20;;;9.90;;
1509;SDS011;746;48.688;9.428;2023-02-28T08:05:53;11.20;;;9.67;;
1509;SDS011;746;48.688;9.428;2023-02-28T08:08:15;10.90;;;9.80;;
1509;SDS011;746;48.688;9.428;2023-02-28T08:10:38;12.67;;;10.13;;
1509;SDS011;746;48.688;9.428;2023-02-28T08:12:59;10.63;;;9.53;;
1509;SDS011;746;48.688;9.428;2023-02-28T08:15:21;10.63;;;9.23;;
1509;SDS011;746;48.688;9.428;2023-02-28T08:17:42;10.63;;;9.53;;
1509;SDS011;746;48.688;9.428;2023-02-28T08:20:03;10.97;;;9.80;;
1509;SDS011;746;48.688;9.428;2023-02-28T08:22:25;11.10;;;9.30;;
1509;SDS011;746;48.688;9.428;2023-02-28T08:24:46;12.13;;;10.27;;
1509;SDS011;746;48.688;9.428;2023-02-28T08:27:09;10.73;;;9.23;;
1509;SDS011;746;48.688;9.428;2023-02-28T08:29:30;10.97;;;9.27;;
1509;SDS011;746;48.688;9.428;2023-02-28T08:31:51;10.70;;;9.43;;
1509;SDS011;746;48.688;9.428;2023-02-28T08:34:13;9.97;;;8.93;;
1509;SDS011;746;48.688;9.428;2023-02-28T08:36:34;10.17;;;9.17;;
1509;SDS011;746;48.688;9.428;2023-02-28T08:38:56;10.87;;;9.30;;
1509;SDS011;746;48.688;9.428;2023-02-28T08:41:17;12.57;;;9.60;;
1509;SDS011;746;48.688;9.428;2023-02-28T08:43:40;10.97;;;9.13;;
1509;SDS011;746;48.688;9.428;2023-02-28T08:46:01;10.97;;;9.50;;
1509;SDS011;746;48.688;9.428;2023-02-28T08:48:23;11.13;;;9.73;;
1509;SDS011;746;48.688;9.428;2023-02-28T08:50:54;11.23;;;9.60;;
1509;SDS011;746;48.688;9.428;2023-02-28T08:53:26;11.70;;;9.13;;
1509;SDS011;746;48.688;9.428;2023-02-28T08:55:54;10.57;;;9.47;;
1509;SDS011;746;48.688;9.428;2023-02-28T08:58:16;10.37;;;9.27;;
1509;SDS011;746;48.688;9.428;2023-02-28T09:00:38;10.03;;;9.00;;
1509;SDS011;746;48.688;9.428;2023-02-28T09:03:00;10.07;;;8.77;;
1509;SDS011;746;48.688;9.428;2023-02-28T09:05:21;9.83;;;8.37;;
1509;SDS011;746;48.688;9.428;2023-02-28T09:07:43;11.00;;;8.90;;
1509;SDS011;746;48.688;9.428;2023-02-28T09:10:05;14.67;;;9.53;;
1509;SDS011;746;48.688;9.428;2023-02-28T09:12:26;10.10;;;9.00;;
1509;SDS011;746;48.688;9.428;2023-02-28T09:14:48;12.93;;;9.50;;
1509;SDS011;746;48.688;9.428;2023-02-28T09:17:11;9.90;;;8.90;;
1509;SDS011;746;48.688;9.428;2023-02-28T09:19:32;10.60;;;9.50;;
1509;SDS011;746;48.688;9.428;2023-02-28T09:21:54;11.80;;;9.87;;
1509;SDS011;746;48.688;9.428;2023-02-28T09:24:15;10.00;;;9.00;;
1509;SDS011;746;48.688;9.428;2023-02-28T09:26:37;11.47;;;10.23;;
1509;SDS011;746;48.688;9.428;2023-02-28T09:29:14;12.97;;;9.87;;
1509;SDS011;746;48.688;9.428;2023-02-28T09:31:37;10.90;;;9.40;;
1509;SDS011;746;48.688;9.428;2023-02-28T09:34:00;11.97;;;9.77;;
1509;SDS011;746;48.688;9.428;2023-02-28T09:36:22;12.60;;;9.00;;
1509;SDS011;746;48.688;9.428;2023-02-28T09:38:53;11.07;;;9.97;;
1509;SDS011;746;48.688;9.428;2023-02-28T09:41:15;11.30;;;9.83;;
1509;SDS011;746;48.688;9.428;2023-02-28T09:43:38;10.97;;;9.87;;
1509;SDS011;746;48.688;9.428;2023-02-28T09:46:02;11.00;;;9.87;;
1509;SDS011;746;48.688;9.428;2023-02-28T09:48:28;11.33;;;9.63;;
1509;SDS011;746;48.688;9.428;2023-02-28T09:50:52;11.20;;;9.63;;
1509;SDS011;746;48.688;9.428;2023-02-28T09:53:18;10.70;;;9.40;;
1509;SDS011;746;48.688;9.428;2023-02-28T09:55:42;11.27;;;9.27;;
1509;SDS011;746;48.688;9.428;2023-02-28T09:58:08;10.67;;;9.03;;
1509;SDS011;746;48.688;9.428;2023-02-28T10:00:36;12.17;;;10.33;;
1509;SDS011;746;48.688;9.428;2023-02-28T10:03:04;11.23;;;9.83;;
1509;SDS011;746;48.688;9.428;2023-02-28T10:05:26;11.40;;;9.83;;
1509;SDS011;746;48.688;9.428;2023-02-28T10:07:56;11.10;;;9.93;;
1509;SDS011;746;48.688;9.428;2023-02-28T10:10:21;11.20;;;10.00;;
1509;SDS011;746;48.688;9.428;2023-02-28T10:12:44;12.13;;;9.90;;
1509;SDS011;746;48.688;9.428;2023-02-28T10:15:07;10.53;;;9.17;;
1509;SDS011;746;48.688;9.428;2023-02-28T10:17:36;12.23;;;9.43;;
1509;SDS011;746;48.688;9.428;2023-02-28T10:20:15;12.27;;;9.70;;
1509;SDS011;746;48.688;9.428;2023-02-28T10:22:41;10.50;;;9.50;;
1509;SDS011;746;48.688;9.428;2023-02-28T10:25:11;10.60;;;9.60;;
1509;SDS011;746;48.688;9.428;2023-02-28T10:27:37;11.33;;;10.03;;
1509;SDS011;746;48.688;9.428;2023-02-28T10:29:59;11.50;;;10.30;;
1509;SDS011;746;48.688;9.428;2023-02-28T10:32:21;11.73;;;10.53;;
1509;SDS011;746;48.688;9.428;2023-02-28T10:34:44;11.17;;;10.07;;
1509;SDS011;746;48.688;9.428;2023-02-28T10:37:05;11.70;;;10.17;;
1509;SDS011;746;48.688;9.428;2023-02-28T10:39:37;11.20;;;9.77;;
1509;SDS011;746;48.688;9.428;2023-02-28T10:42:00;10.87;;;9.80;;
1509;SDS011;746;48.688;9.428;2023-02-28T10:44:23;11.23;;;10.07;;
1509;SDS011;746;48.688;9.428;2023-02-28T10:46:44;12.20;;;9.97;;
1509;SDS011;746;48.688;9.428;2023-02-28T10:49:06;11.43;;;10.03;;
1509;SDS011;746;48.688;9.428;2023-02-28T10:51:36;13.47;;;9.70;;
1509;SDS011;746;48.688;9.428;2023-02-28T10:53:57;11.27;;;10.07;;
1509;SDS011;746;48.688;9.428;2023-02-28T10:56:21;11.57;;;10.17;;
1509;SDS011;746;48.688;9.428;2023-02-28T10:58:49;12.73;;;10.07;;
1509;SDS011;746;48.688;9.428;2023-02-28T11:01:12;11.37;;;10.23;;
1509;SDS011;746;48.688;9.428;2023-02-28T11:03:35;11.60;;;10.27;;
1509;SDS011;746;48.688;9.428;2023-02-28T11:05:56;10.80;;;9.70;;
1509;SDS011;746;48.688;9.428;2023-02-28T11:08:18;10.80;;;9.70;;
1509;SDS011;746;48.688;9.428;2023-02-28T11:10:39;10.77;;;9.70;;
1509;SDS011;746;48.688;9.428;2023-02-28T11:13:00;11.17;;;10.13;;
1509;SDS011;746;48.688;9.428;2023-02-28T11:15:24;10.27;;;9.37;;
1509;SDS011;746;48.688;9.428;2023-02-28T11:17:46;10.97;;;9.63;;
1509;SDS011;746;48.688;9.428;2023-02-28T11:20:19;10.70;;;9.60;;
1509;SDS011;746;48.688;9.428;2023-02-28T11:22:43;11.77;;;10.50;;
1509;SDS011;746;48.688;9.428;2023-02-28T11:25:06;10.43;;;9.43;;
1509;SDS011;746;48.688;9.428;2023-02-28T11:27:45;11.87;;;10.67;;
1509;SDS011;746;48.688;9.428;2023-02-28T11:32:36;11.53;;;10.03;;
1509;SDS011;746;48.688;9.428;2023-02-28T11:35:00;10.47;;;9.43;;
1509;SDS011;746;48.688;9.428;2023-02-28T11:37:21;10.67;;;9.67;;
1509;SDS011;746;48.688;9.428;2023-02-28T11:39:44;11.17;;;10.17;;
1509;SDS011;746;48.688;9.428;2023-02-28T11:42:15;11.13;;;10.07;;
1509;SDS011;746;48.688;9.428;2023-02-28T11:44:51;12.23;;;10.93;;
1509;SDS011;746;48.688;9.428;2023-02-28T11:47:17;11.80;;;10.47;;
1509;SDS011;746;48.688;9.428;2023-02-28T11:49:43;11.03;;;9.90;;
1509;SDS011;746;48.688;9.428;2023-02-28T11:52:06;11.27;;;10.17;;
1509;SDS011;746;48.688;9.428;2023-02-28T11:54:34;10.90;;;9.90;;
1509;SDS011;746;48.688;9.428;2023-02-28T11:56:58;11.20;;;10.10;;
1509;SDS011;746;48.688;9.428;2023-02-28T11:59:26;11.23;;;10.13;;
1509;SDS011;746;48.688;9.428;2023-02-28T12:01:58;10.63;;;9.53;;
1509;SDS011;746;48.688;9.428;2023-02-28T12:04:25;13.30;;;10.07;;
1509;SDS011;746;48.688;9.428;2023-02-28T12:06:52;10.90;;;9.90;;
1509;SDS011;746;48.688;9.428;2023-02-28T12:09:24;11.00;;;9.90;;
1509;SDS011;746;48.688;9.428;2023-02-28T12:11:51;11.30;;;10.13;;
1509;SDS011;746;48.688;9.428;2023-02-28T12:14:24;11.60;;;10.50;;
1509;SDS011;746;48.688;9.428;2023-02-28T12:16:49;11.50;;;10.40;;
1509;SDS011;746;48.688;9.428;2023-02-28T12:19:18;11.67;;;10.47;;
1509;SDS011;746;48.688;9.428;2023-02-28T12:21:45;12.07;;;9.80;;
1509;SDS011;746;48.688;9.428;2023-02-28T12:24:32;10.97;;;9.87;;
1509;SDS011;746;48.688;9.428;2023-02-28T12:26:57;11.20;;;10.10;;
1509;SDS011;746;48.688;9.428;2023-02-28T12:29:21;10.83;;;9.93;;
1509;SDS011;746;48.688;9.428;2023-02-28T12:31:45;10.93;;;9.77;;
1509;SDS011;746;48.688;9.428;2023-02-28T12:34:10;11.30;;;10.20;;
1509;SDS011;746;48.688;9.428;2023-02-28T12:36:32;11.63;;;10.43;;
1509;SDS011;746;48.688;9.428;2023-02-28T12:38:55;11.27;;;10.00;;
1509;SDS011;746;48.688;9.428;2023-02-28T12:41:19;11.57;;;10.37;;
1509;SDS011;746;48.688;9.428;2023-02-28T12:43:44;11.23;;;10.13;;
1509;SDS011;746;48.688;9.428;2023-02-28T12:46:07;11.10;;;10.00;;
1509;SDS011;746;48.688;9.428;2023-02-28T12:48:31;10.83;;;9.73;;
1509;SDS011;746;48.688;9.428;2023-02-28T12:50:52;10.90;;;9.80;;
1509;SDS011;746;48.688;9.428;2023-02-28T12:53:15;10.93;;;9.83;;
1509;SDS011;746;48.688;9.428;2023-02-28T12:55:40;10.57;;;9.50;;
1509;SDS011;746;48.688;9.428;2023-02-28T12:58:08;10.80;;;9.80;;
1509;SDS011;746;48.688;9.428;2023-02-28T13:00:33;9.67;;;8.77;;
1509;SDS011;746;48.688;9.428;2023-02-28T13:05:49;11.13;;;9.60;;
1509;SDS011;746;48.688;9.428;2023-02-28T13:11:00;10.60;;;9.50;;
1509;SDS011;746;48.688;9.428;2023-02-28T13:13:28;10.33;;;9.23;;
1509;SDS011;746;48.688;9.428;2023-02-28T13:16:00;12.17;;;10.23;;
1509;SDS011;746;48.688;9.428;2023-02-28T13:18:27;10.13;;;9.13;;
1509;SDS011;746;48.688;9.428;2023-02-28T13:20:49;11.53;;;9.97;;
1509;SDS011;746;48.688;9.428;2023-02-28T13:25:50;10.53;;;9.53;;
1509;SDS011;746;48.688;9.428;2023-02-28T13:28:13;9.73;;;8.80;;
1509;SDS011;746;48.688;9.428;2023-02-28T13:31:05;10.33;;;9.33;;
1509;SDS011;746;48.688;9.428;2023-02-28T13:33:27;10.30;;;9.20;;
1509;SDS011;746;48.688;9.428;2023-02-28T13:35:50;9.50;;;8.60;;
1509;SDS011;746;48.688;9.428;2023-02-28T13:38:23;9.40;;;8.50;;
1509;SDS011;746;48.688;9.428;2023-02-28T13:40:44;9.23;;;8.33;;
1509;SDS011;746;48.688;9.428;2023-02-28T13:43:07;9.63;;;8.80;;
1509;SDS011;746;48.688;9.428;2023-02-28T13:45:29;9.23;;;8.37;;
1509;SDS011;746;48.688;9.428;2023-02-28T13:48:01;9.77;;;8.87;;
1509;SDS011;746;48.688;9.428;2023-02-28T13:50:27;9.83;;;8.93;;
1509;SDS011;746;48.688;9.428;2023-02-28T13:52:52;9.90;;;8.90;;
1509;SDS011;746;48.688;9.428;2023-02-28T13:55:21;8.77;;;7.80;;
1509;SDS011;746;48.688;9.428;2023-02-28T13:57:48;10.20;;;9.20;;
1509;SDS011;746;48.688;9.428;2023-02-28T14:00:19;9.83;;;8.67;;
1509;SDS011;746;48.688;9.428;2023-02-28T14:02:47;9.60;;;8.60;;
1509;SDS011;746;48.688;9.428;2023-02-28T14:05:14;9.60;;;8.73;;
1509;SDS011;746;48.688;9.428;2023-02-28T14:07:38;9.27;;;8.20;;
1509;SDS011;746;48.688;9.428;2023-02-28T14:10:01;10.13;;;9.13;;
1509;SDS011;746;48.688;9.428;2023-02-28T14:15:23;9.70;;;8.80;;
1509;SDS011;746;48.688;9.428;2023-02-28T14:17:46;10.83;;;8.73;;
1509;SDS011;746;48.688;9.428;2023-02-28T14:20:14;9.17;;;8.37;;
1509;SDS011;746;48.688;9.428;2023-02-28T14:22:43;9.67;;;8.70;;
1509;SDS011;746;48.688;9.428;2023-02-28T14:25:11;9.40;;;8.50;;
1509;SDS011;746;48.688;9.428;2023-02-28T14:27:37;10.40;;;9.40;;
1509;SDS011;746;48.688;9.428;2023-02-28T14:30:16;10.53;;;9.60;;
1509;SDS011;746;48.688;9.428;2023-02-28T14:32:41;9.47;;;8.57;;
1509;SDS011;746;48.688;9.428;2023-02-28T14:35:09;9.80;;;8.80;;
1509;SDS011;746;48.688;9.428;2023-02-28T14:37:37;10.93;;;9.10;;
1509;SDS011;746;48.688;9.428;2023-02-28T14:39:59;10.13;;;9.23;;
1509;SDS011;746;48.688;9.428;2023-02-28T14:42:27;11.27;;;9.60;;
1509;SDS011;746;48.688;9.428;2023-02-28T14:44:53;10.93;;;9.33;;
1509;SDS011;746;48.688;9.428;2023-02-28T14:47:14;9.60;;;8.80;;
1509;SDS011;746;48.688;9.428;2023-02-28T14:49:36;10.73;;;9.73;;
1509;SDS011;746;48.688;9.428;2023-02-28T14:52:03;10.17;;;9.17;;
1509;SDS011;746;48.688;9.428;2023-02-28T14:54:27;9.93;;;9.00;;
1509;SDS011;746;48.688;9.428;2023-02-28T14:56:49;9.90;;;8.90;;
1509;SDS011;746;48.688;9.428;2023-02-28T14:59:23;10.13;;;9.23;;
1509;SDS011;746;48.688;9.428;2023-02-28T15:01:45;9.40;;;8.57;;
1509;SDS011;746;48.688;9.428;2023-02-28T15:04:11;10.27;;;9.30;;
1509;SDS011;746;48.688;9.428;2023-02-28T15:06:39;9.83;;;9.03;;
1509;SDS011;746;48.688;9.428;2023-02-28T15:09:11;9.33;;;8.47;;
1509;SDS011;746;48.688;9.428;2023-02-28T15:11:36;10.10;;;9.20;;
1509;SDS011;746;48.688;9.428;2023-02-28T15:13:58;9.53;;;8.63;;
1509;SDS011;746;48.688;9.428;2023-02-28T15:16:19;9.97;;;9.07;;
1509;SDS011;746;48.688;9.428;2023-02-28T15:18:43;10.37;;;9.43;;
1509;SDS011;746;48.688;9.428;2023-02-28T15:21:06;9.93;;;9.03;;
1509;SDS011;746;48.688;9.428;2023-02-28T15:23:28;9.70;;;8.80;;